Track Логвинчук Евгений

Time Latitude Longitude Accuracy (66% radius in meters) Altitude (meters) Speed (km/hour) Bearing (degrees) Battery (%) GPS flag
08:16:07 60.370776 29.556685 0 0 0 0 1 delete
08:16:05 60.370750 29.556674 0 0 0 0 1 delete
08:16:02 60.370728 29.556689 0 0 0 0 1 delete
08:16:00 60.370716 29.556722 0 0 0 0 1 delete
08:15:59 60.370686 29.556784 0 0 0 0 1 delete
08:15:57 60.370632 29.556941 0 0 0 0 1 delete
08:15:55 60.370602 29.557121 0 0 0 0 1 delete
08:15:53 60.370679 29.557274 0 0 0 0 1 delete
08:15:51 60.370806 29.557321 0 0 0 0 1 delete
08:15:49 60.370904 29.557182 0 0 0 0 1 delete
08:15:47 60.371008 29.556994 0 0 0 0 1 delete
08:15:45 60.371114 29.556896 0 0 0 0 1 delete
08:15:42 60.371222 29.557036 0 0 0 0 1 delete
08:15:41 60.371218 29.557115 0 0 0 0 1 delete
08:15:40 60.371200 29.557218 0 0 0 0 1 delete
08:15:39 60.371174 29.557320 0 0 0 0 1 delete
08:15:38 60.371148 29.557419 0 0 0 0 1 delete
08:15:37 60.371119 29.557526 0 0 0 0 1 delete
08:15:35 60.371052 29.557739 0 0 0 0 1 delete
08:15:33 60.370963 29.557958 0 0 0 0 1 delete
08:15:31 60.370869 29.558145 0 0 0 0 1 delete
08:15:29 60.370766 29.558326 0 0 0 0 1 delete
08:15:28 60.370714 29.558375 0 0 0 0 1 delete
08:15:27 60.370664 29.558409 0 0 0 0 1 delete
08:15:26 60.370600 29.558435 0 0 0 0 1 delete
08:15:25 60.370530 29.558474 0 0 0 0 1 delete
08:15:24 60.370451 29.558531 0 0 0 0 1 delete
08:15:23 60.370380 29.558583 0 0 0 0 1 delete
08:15:22 60.370312 29.558634 0 0 0 0 1 delete
08:15:21 60.370248 29.558656 0 0 0 0 1 delete
08:15:19 60.370126 29.558620 0 0 0 0 1 delete
08:15:17 60.370028 29.558534 0 0 0 0 1 delete
08:15:16 60.369981 29.558516 0 0 0 0 1 delete
08:15:15 60.369953 29.558526 0 0 0 0 1 delete
08:15:14 60.369933 29.558554 0 0 0 0 1 delete
08:15:13 60.369920 29.558587 0 0 0 0 1 delete
08:15:12 60.369904 29.558608 0 0 0 0 1 delete
08:15:11 60.369882 29.558615 0 0 0 0 1 delete
08:15:10 60.369851 29.558627 0 0 0 0 1 delete
08:15:09 60.369811 29.558643 0 0 0 0 1 delete
08:15:08 60.369769 29.558677 0 0 0 0 1 delete
08:15:07 60.369726 29.558710 0 0 0 0 1 delete
08:15:06 60.369680 29.558738 0 0 0 0 1 delete
08:15:05 60.369637 29.558753 0 0 0 0 1 delete
08:15:04 60.369595 29.558770 0 0 0 0 1 delete
08:15:03 60.369558 29.558795 0 0 0 0 1 delete
08:15:02 60.369522 29.558819 0 0 0 0 1 delete
08:15:01 60.369491 29.558854 0 0 0 0 1 delete
08:14:58 60.369404 29.558956 0 0 0 0 1 delete
08:14:55 60.369311 29.559001 0 0 0 0 1 delete